sensor_id;sensor_type;location;lat;lon;timestamp;P1;durP1;ratioP1;P2;durP2;ratioP2
21624;SDS011;10974;51.034;3.744;2024-03-02T00:01:51;1.00;;;0.90;;
21624;SDS011;10974;51.034;3.744;2024-03-02T00:04:17;1.43;;;1.00;;
21624;SDS011;10974;51.034;3.744;2024-03-02T00:06:43;1.00;;;0.90;;
21624;SDS011;10974;51.034;3.744;2024-03-02T00:09:09;3.73;;;1.30;;
21624;SDS011;10974;51.034;3.744;2024-03-02T00:11:37;1.10;;;0.80;;
21624;SDS011;10974;51.034;3.744;2024-03-02T00:14:04;1.10;;;0.80;;
21624;SDS011;10974;51.034;3.744;2024-03-02T00:16:30;1.17;;;1.07;;
21624;SDS011;10974;51.034;3.744;2024-03-02T00:19:00;0.97;;;0.97;;
21624;SDS011;10974;51.034;3.744;2024-03-02T00:21:27;1.03;;;0.90;;
21624;SDS011;10974;51.034;3.744;2024-03-02T00:23:54;1.73;;;0.90;;
21624;SDS011;10974;51.034;3.744;2024-03-02T00:26:20;2.70;;;1.30;;
21624;SDS011;10974;51.034;3.744;2024-03-02T00:28:46;1.80;;;1.30;;
21624;SDS011;10974;51.034;3.744;2024-03-02T00:31:19;1.37;;;1.00;;
21624;SDS011;10974;51.034;3.744;2024-03-02T00:33:47;1.83;;;1.10;;
21624;SDS011;10974;51.034;3.744;2024-03-02T00:36:16;1.60;;;1.00;;
21624;SDS011;10974;51.034;3.744;2024-03-02T00:38:48;1.70;;;1.03;;
21624;SDS011;10974;51.034;3.744;2024-03-02T00:41:24;1.40;;;1.10;;
21624;SDS011;10974;51.034;3.744;2024-03-02T00:43:54;1.83;;;1.30;;
21624;SDS011;10974;51.034;3.744;2024-03-02T00:46:23;1.80;;;1.30;;
21624;SDS011;10974;51.034;3.744;2024-03-02T00:48:53;1.30;;;1.20;;
21624;SDS011;10974;51.034;3.744;2024-03-02T00:51:21;1.00;;;1.00;;
21624;SDS011;10974;51.034;3.744;2024-03-02T00:53:47;1.57;;;1.10;;
21624;SDS011;10974;51.034;3.744;2024-03-02T00:56:14;1.23;;;1.13;;
21624;SDS011;10974;51.034;3.744;2024-03-02T00:58:40;1.13;;;0.93;;
21624;SDS011;10974;51.034;3.744;2024-03-02T01:01:06;2.53;;;1.03;;
21624;SDS011;10974;51.034;3.744;2024-03-02T01:03:32;1.30;;;1.20;;
21624;SDS011;10974;51.034;3.744;2024-03-02T01:05:59;0.90;;;0.90;;
21624;SDS011;10974;51.034;3.744;2024-03-02T01:08:25;1.57;;;1.17;;
21624;SDS011;10974;51.034;3.744;2024-03-02T01:10:51;1.53;;;1.10;;
21624;SDS011;10974;51.034;3.744;2024-03-02T01:13:17;1.37;;;1.27;;
21624;SDS011;10974;51.034;3.744;2024-03-02T01:15:44;1.40;;;1.20;;
21624;SDS011;10974;51.034;3.744;2024-03-02T01:18:10;1.50;;;1.40;;
21624;SDS011;10974;51.034;3.744;2024-03-02T01:20:36;2.17;;;1.13;;
21624;SDS011;10974;51.034;3.744;2024-03-02T01:23:02;1.33;;;1.23;;
21624;SDS011;10974;51.034;3.744;2024-03-02T01:25:28;1.07;;;0.90;;
21624;SDS011;10974;51.034;3.744;2024-03-02T01:27:54;1.97;;;0.97;;
21624;SDS011;10974;51.034;3.744;2024-03-02T01:30:20;2.90;;;1.20;;
21624;SDS011;10974;51.034;3.744;2024-03-02T01:32:46;1.20;;;1.10;;
21624;SDS011;10974;51.034;3.744;2024-03-02T01:35:12;1.10;;;1.00;;
21624;SDS011;10974;51.034;3.744;2024-03-02T01:37:40;2.97;;;1.37;;
21624;SDS011;10974;51.034;3.744;2024-03-02T01:40:06;1.40;;;1.30;;
21624;SDS011;10974;51.034;3.744;2024-03-02T01:42:37;1.80;;;1.00;;
21624;SDS011;10974;51.034;3.744;2024-03-02T01:45:06;1.83;;;1.20;;
21624;SDS011;10974;51.034;3.744;2024-03-02T01:47:33;1.43;;;1.07;;
21624;SDS011;10974;51.034;3.744;2024-03-02T01:49:59;1.20;;;1.10;;
21624;SDS011;10974;51.034;3.744;2024-03-02T01:52:26;1.70;;;1.20;;
21624;SDS011;10974;51.034;3.744;2024-03-02T01:54:52;1.83;;;1.57;;
21624;SDS011;10974;51.034;3.744;2024-03-02T01:57:18;1.40;;;1.30;;
21624;SDS011;10974;51.034;3.744;2024-03-02T01:59:45;2.20;;;1.27;;
21624;SDS011;10974;51.034;3.744;2024-03-02T02:02:13;1.63;;;1.40;;
21624;SDS011;10974;51.034;3.744;2024-03-02T02:04:39;1.90;;;1.50;;
21624;SDS011;10974;51.034;3.744;2024-03-02T02:07:05;1.40;;;1.27;;
21624;SDS011;10974;51.034;3.744;2024-03-02T02:09:31;2.00;;;1.40;;
21624;SDS011;10974;51.034;3.744;2024-03-02T02:11:58;2.60;;;1.83;;
21624;SDS011;10974;51.034;3.744;2024-03-02T02:14:24;1.80;;;1.13;;
21624;SDS011;10974;51.034;3.744;2024-03-02T02:16:50;1.47;;;1.00;;
21624;SDS011;10974;51.034;3.744;2024-03-02T02:19:17;1.70;;;1.20;;
21624;SDS011;10974;51.034;3.744;2024-03-02T02:21:43;2.47;;;1.17;;
21624;SDS011;10974;51.034;3.744;2024-03-02T02:24:09;1.60;;;1.20;;
21624;SDS011;10974;51.034;3.744;2024-03-02T02:26:38;1.10;;;1.00;;
21624;SDS011;10974;51.034;3.744;2024-03-02T02:29:04;2.10;;;1.50;;
21624;SDS011;10974;51.034;3.744;2024-03-02T02:31:37;1.90;;;1.47;;
21624;SDS011;10974;51.034;3.744;2024-03-02T02:34:04;2.73;;;1.93;;
21624;SDS011;10974;51.034;3.744;2024-03-02T02:36:30;3.20;;;1.87;;
21624;SDS011;10974;51.034;3.744;2024-03-02T02:38:56;2.83;;;1.33;;
21624;SDS011;10974;51.034;3.744;2024-03-02T02:41:22;1.83;;;1.50;;
21624;SDS011;10974;51.034;3.744;2024-03-02T02:43:48;3.10;;;1.73;;
21624;SDS011;10974;51.034;3.744;2024-03-02T02:46:15;2.97;;;1.47;;
21624;SDS011;10974;51.034;3.744;2024-03-02T02:48:41;2.07;;;1.40;;
21624;SDS011;10974;51.034;3.744;2024-03-02T02:51:07;1.57;;;1.30;;
21624;SDS011;10974;51.034;3.744;2024-03-02T02:53:33;3.17;;;1.70;;
21624;SDS011;10974;51.034;3.744;2024-03-02T02:56:00;2.03;;;1.40;;
21624;SDS011;10974;51.034;3.744;2024-03-02T02:58:26;3.40;;;1.40;;
21624;SDS011;10974;51.034;3.744;2024-03-02T03:00:52;4.13;;;1.40;;
21624;SDS011;10974;51.034;3.744;2024-03-02T03:03:21;1.90;;;1.60;;
21624;SDS011;10974;51.034;3.744;2024-03-02T03:05:48;3.33;;;1.80;;
21624;SDS011;10974;51.034;3.744;2024-03-02T03:08:14;3.53;;;1.60;;
21624;SDS011;10974;51.034;3.744;2024-03-02T03:10:43;2.93;;;1.60;;
21624;SDS011;10974;51.034;3.744;2024-03-02T03:13:09;1.90;;;1.30;;
21624;SDS011;10974;51.034;3.744;2024-03-02T03:15:35;1.40;;;1.30;;
21624;SDS011;10974;51.034;3.744;2024-03-02T03:18:02;2.73;;;1.03;;
21624;SDS011;10974;51.034;3.744;2024-03-02T03:20:29;1.50;;;1.10;;
21624;SDS011;10974;51.034;3.744;2024-03-02T03:22:55;1.40;;;1.00;;
21624;SDS011;10974;51.034;3.744;2024-03-02T03:25:21;2.70;;;1.50;;
21624;SDS011;10974;51.034;3.744;2024-03-02T03:27:47;2.53;;;1.20;;
21624;SDS011;10974;51.034;3.744;2024-03-02T03:30:14;1.80;;;1.00;;
21624;SDS011;10974;51.034;3.744;2024-03-02T03:32:40;1.47;;;1.00;;
21624;SDS011;10974;51.034;3.744;2024-03-02T03:35:06;2.73;;;1.20;;
21624;SDS011;10974;51.034;3.744;2024-03-02T03:37:32;1.57;;;1.20;;
21624;SDS011;10974;51.034;3.744;2024-03-02T03:39:59;0.97;;;0.93;;
21624;SDS011;10974;51.034;3.744;2024-03-02T03:42:26;2.83;;;1.30;;
21624;SDS011;10974;51.034;3.744;2024-03-02T03:44:52;1.77;;;1.00;;
21624;SDS011;10974;51.034;3.744;2024-03-02T03:47:18;1.83;;;1.30;;
21624;SDS011;10974;51.034;3.744;2024-03-02T03:49:45;1.90;;;0.90;;
21624;SDS011;10974;51.034;3.744;2024-03-02T03:52:11;2.57;;;0.90;;
21624;SDS011;10974;51.034;3.744;2024-03-02T03:54:37;1.27;;;1.10;;
21624;SDS011;10974;51.034;3.744;2024-03-02T03:57:04;1.10;;;1.00;;
21624;SDS011;10974;51.034;3.744;2024-03-02T03:59:30;1.10;;;1.00;;
21624;SDS011;10974;51.034;3.744;2024-03-02T04:01:56;1.20;;;0.90;;
21624;SDS011;10974;51.034;3.744;2024-03-02T04:04:22;1.47;;;1.00;;
21624;SDS011;10974;51.034;3.744;2024-03-02T04:06:48;2.07;;;1.03;;
21624;SDS011;10974;51.034;3.744;2024-03-02T04:09:14;1.33;;;0.97;;
21624;SDS011;10974;51.034;3.744;2024-03-02T04:11:40;1.70;;;0.97;;
21624;SDS011;10974;51.034;3.744;2024-03-02T04:14:06;0.90;;;0.90;;
21624;SDS011;10974;51.034;3.744;2024-03-02T04:16:32;1.53;;;1.43;;
21624;SDS011;10974;51.034;3.744;2024-03-02T04:18:58;1.67;;;1.30;;
21624;SDS011;10974;51.034;3.744;2024-03-02T04:21:24;2.93;;;1.27;;
21624;SDS011;10974;51.034;3.744;2024-03-02T04:23:50;1.20;;;1.00;;
21624;SDS011;10974;51.034;3.744;2024-03-02T04:26:17;1.83;;;1.03;;
21624;SDS011;10974;51.034;3.744;2024-03-02T04:28:47;1.53;;;1.20;;
21624;SDS011;10974;51.034;3.744;2024-03-02T04:31:14;2.30;;;1.30;;
21624;SDS011;10974;51.034;3.744;2024-03-02T04:33:40;2.27;;;1.00;;
21624;SDS011;10974;51.034;3.744;2024-03-02T04:36:06;1.57;;;1.13;;
21624;SDS011;10974;51.034;3.744;2024-03-02T04:38:34;1.13;;;0.87;;
21624;SDS011;10974;51.034;3.744;2024-03-02T04:41:00;1.63;;;1.00;;
21624;SDS011;10974;51.034;3.744;2024-03-02T04:43:26;1.77;;;1.10;;
21624;SDS011;10974;51.034;3.744;2024-03-02T04:45:52;2.50;;;0.80;;
21624;SDS011;10974;51.034;3.744;2024-03-02T04:48:18;1.27;;;0.90;;
21624;SDS011;10974;51.034;3.744;2024-03-02T04:50:44;2.80;;;1.00;;
21624;SDS011;10974;51.034;3.744;2024-03-02T04:53:10;4.00;;;1.10;;
21624;SDS011;10974;51.034;3.744;2024-03-02T04:55:36;0.73;;;0.73;;
21624;SDS011;10974;51.034;3.744;2024-03-02T04:58:06;2.00;;;1.03;;
21624;SDS011;10974;51.034;3.744;2024-03-02T05:00:32;2.00;;;1.27;;
21624;SDS011;10974;51.034;3.744;2024-03-02T05:02:58;1.43;;;1.00;;
21624;SDS011;10974;51.034;3.744;2024-03-02T05:05:24;1.90;;;1.10;;
21624;SDS011;10974;51.034;3.744;2024-03-02T05:07:50;2.00;;;1.13;;
21624;SDS011;10974;51.034;3.744;2024-03-02T05:10:16;1.00;;;0.90;;
21624;SDS011;10974;51.034;3.744;2024-03-02T05:12:42;2.40;;;1.30;;
21624;SDS011;10974;51.034;3.744;2024-03-02T05:15:12;1.40;;;1.30;;
21624;SDS011;10974;51.034;3.744;2024-03-02T05:17:39;1.53;;;1.20;;
21624;SDS011;10974;51.034;3.744;2024-03-02T05:20:06;3.73;;;1.10;;
21624;SDS011;10974;51.034;3.744;2024-03-02T05:22:35;1.27;;;1.00;;
21624;SDS011;10974;51.034;3.744;2024-03-02T05:25:02;3.47;;;1.40;;
21624;SDS011;10974;51.034;3.744;2024-03-02T05:27:28;1.97;;;1.10;;
21624;SDS011;10974;51.034;3.744;2024-03-02T05:29:54;6.37;;;1.00;;
21624;SDS011;10974;51.034;3.744;2024-03-02T05:32:20;2.10;;;1.00;;
21624;SDS011;10974;51.034;3.744;2024-03-02T05:34:46;1.53;;;1.20;;
21624;SDS011;10974;51.034;3.744;2024-03-02T05:37:12;1.63;;;1.00;;
21624;SDS011;10974;51.034;3.744;2024-03-02T05:39:38;2.63;;;1.30;;
21624;SDS011;10974;51.034;3.744;2024-03-02T05:42:04;1.20;;;1.10;;
21624;SDS011;10974;51.034;3.744;2024-03-02T05:44:30;2.27;;;1.17;;
21624;SDS011;10974;51.034;3.744;2024-03-02T05:46:57;2.60;;;1.20;;
21624;SDS011;10974;51.034;3.744;2024-03-02T05:49:23;2.20;;;1.13;;
21624;SDS011;10974;51.034;3.744;2024-03-02T05:51:49;2.50;;;1.10;;
21624;SDS011;10974;51.034;3.744;2024-03-02T05:54:15;2.80;;;1.50;;
21624;SDS011;10974;51.034;3.744;2024-03-02T05:56:41;2.63;;;1.53;;
21624;SDS011;10974;51.034;3.744;2024-03-02T05:59:07;2.77;;;1.47;;
21624;SDS011;10974;51.034;3.744;2024-03-02T06:01:47;3.30;;;1.10;;
21624;SDS011;10974;51.034;3.744;2024-03-02T06:04:15;1.63;;;1.00;;
21624;SDS011;10974;51.034;3.744;2024-03-02T06:06:42;4.43;;;1.20;;
21624;SDS011;10974;51.034;3.744;2024-03-02T06:09:08;2.53;;;1.13;;
21624;SDS011;10974;51.034;3.744;2024-03-02T06:11:34;3.50;;;1.40;;
21624;SDS011;10974;51.034;3.744;2024-03-02T06:14:01;4.00;;;1.03;;
21624;SDS011;10974;51.034;3.744;2024-03-02T06:16:27;1.83;;;1.00;;
21624;SDS011;10974;51.034;3.744;2024-03-02T06:18:55;1.10;;;1.00;;
21624;SDS011;10974;51.034;3.744;2024-03-02T06:21:23;2.10;;;1.23;;
21624;SDS011;10974;51.034;3.744;2024-03-02T06:23:49;2.00;;;1.10;;
21624;SDS011;10974;51.034;3.744;2024-03-02T06:26:15;2.80;;;1.17;;
21624;SDS011;10974;51.034;3.744;2024-03-02T06:28:41;2.10;;;1.00;;
21624;SDS011;10974;51.034;3.744;2024-03-02T06:31:08;1.47;;;1.00;;
21624;SDS011;10974;51.034;3.744;2024-03-02T06:33:34;2.30;;;1.27;;
21624;SDS011;10974;51.034;3.744;2024-03-02T06:36:00;2.10;;;1.00;;
21624;SDS011;10974;51.034;3.744;2024-03-02T06:38:26;1.30;;;1.00;;
21624;SDS011;10974;51.034;3.744;2024-03-02T06:40:53;2.70;;;1.20;;
21624;SDS011;10974;51.034;3.744;2024-03-02T06:43:22;1.13;;;1.10;;
21624;SDS011;10974;51.034;3.744;2024-03-02T06:45:49;2.50;;;1.57;;
21624;SDS011;10974;51.034;3.744;2024-03-02T06:48:15;3.63;;;1.63;;
21624;SDS011;10974;51.034;3.744;2024-03-02T06:50:45;3.30;;;1.40;;
21624;SDS011;10974;51.034;3.744;2024-03-02T06:53:12;4.43;;;1.53;;
21624;SDS011;10974;51.034;3.744;2024-03-02T06:55:38;1.57;;;1.10;;
21624;SDS011;10974;51.034;3.744;2024-03-02T06:58:03;1.77;;;1.40;;
21624;SDS011;10974;51.034;3.744;2024-03-02T07:00:30;1.67;;;0.90;;
21624;SDS011;10974;51.034;3.744;2024-03-02T07:02:56;1.90;;;1.00;;
21624;SDS011;10974;51.034;3.744;2024-03-02T07:05:22;4.40;;;1.20;;
21624;SDS011;10974;51.034;3.744;2024-03-02T07:07:48;2.67;;;1.50;;
21624;SDS011;10974;51.034;3.744;2024-03-02T07:10:14;3.80;;;1.40;;
21624;SDS011;10974;51.034;3.744;2024-03-02T07:12:40;3.47;;;1.43;;
21624;SDS011;10974;51.034;3.744;2024-03-02T07:15:06;4.40;;;1.43;;
21624;SDS011;10974;51.034;3.744;2024-03-02T07:17:32;6.27;;;1.63;;
21624;SDS011;10974;51.034;3.744;2024-03-02T07:19:59;3.73;;;1.40;;
21624;SDS011;10974;51.034;3.744;2024-03-02T07:22:25;2.97;;;1.50;;
21624;SDS011;10974;51.034;3.744;2024-03-02T07:24:51;2.40;;;1.23;;
21624;SDS011;10974;51.034;3.744;2024-03-02T07:27:17;3.72;;;1.40;;
21624;SDS011;10974;51.034;3.744;2024-03-02T07:29:43;2.10;;;1.20;;
21624;SDS011;10974;51.034;3.744;2024-03-02T07:32:10;2.30;;;1.20;;
21624;SDS011;10974;51.034;3.744;2024-03-02T07:34:36;3.60;;;1.40;;
21624;SDS011;10974;51.034;3.744;2024-03-02T07:37:05;4.07;;;1.30;;
21624;SDS011;10974;51.034;3.744;2024-03-02T07:39:31;1.43;;;1.20;;
21624;SDS011;10974;51.034;3.744;2024-03-02T07:41:57;2.10;;;1.17;;
21624;SDS011;10974;51.034;3.744;2024-03-02T07:44:23;3.30;;;1.40;;
21624;SDS011;10974;51.034;3.744;2024-03-02T07:46:49;1.57;;;1.03;;
21624;SDS011;10974;51.034;3.744;2024-03-02T07:49:16;1.30;;;1.20;;
21624;SDS011;10974;51.034;3.744;2024-03-02T07:51:42;3.50;;;1.20;;
21624;SDS011;10974;51.034;3.744;2024-03-02T07:54:08;2.50;;;1.40;;
21624;SDS011;10974;51.034;3.744;2024-03-02T07:56:35;2.73;;;1.17;;
21624;SDS011;10974;51.034;3.744;2024-03-02T07:59:01;2.60;;;1.37;;
21624;SDS011;10974;51.034;3.744;2024-03-02T08:01:28;4.47;;;1.40;;
21624;SDS011;10974;51.034;3.744;2024-03-02T08:03:57;5.77;;;1.50;;
21624;SDS011;10974;51.034;3.744;2024-03-02T08:06:27;3.33;;;1.30;;
21624;SDS011;10974;51.034;3.744;2024-03-02T08:08:56;4.83;;;1.33;;
21624;SDS011;10974;51.034;3.744;2024-03-02T08:11:23;2.63;;;1.60;;
21624;SDS011;10974;51.034;3.744;2024-03-02T08:13:49;4.30;;;1.30;;
21624;SDS011;10974;51.034;3.744;2024-03-02T08:16:16;6.03;;;1.67;;
21624;SDS011;10974;51.034;3.744;2024-03-02T08:18:45;2.97;;;1.40;;
21624;SDS011;10974;51.034;3.744;2024-03-02T08:21:11;2.63;;;1.50;;
21624;SDS011;10974;51.034;3.744;2024-03-02T08:23:38;4.37;;;1.80;;
21624;SDS011;10974;51.034;3.744;2024-03-02T08:26:06;2.13;;;1.30;;
21624;SDS011;10974;51.034;3.744;2024-03-02T08:28:32;3.80;;;1.17;;
21624;SDS011;10974;51.034;3.744;2024-03-02T08:30:58;3.53;;;1.42;;
21624;SDS011;10974;51.034;3.744;2024-03-02T08:33:24;3.47;;;1.30;;
21624;SDS011;10974;51.034;3.744;2024-03-02T08:35:50;8.60;;;1.73;;
21624;SDS011;10974;51.034;3.744;2024-03-02T08:38:16;6.47;;;1.40;;
21624;SDS011;10974;51.034;3.744;2024-03-02T08:40:43;2.50;;;1.47;;
21624;SDS011;10974;51.034;3.744;2024-03-02T08:43:09;3.83;;;1.40;;
21624;SDS011;10974;51.034;3.744;2024-03-02T08:45:35;3.97;;;1.50;;
21624;SDS011;10974;51.034;3.744;2024-03-02T08:48:02;5.27;;;1.53;;
21624;SDS011;10974;51.034;3.744;2024-03-02T08:50:28;3.17;;;1.70;;
21624;SDS011;10974;51.034;3.744;2024-03-02T08:52:54;3.77;;;1.30;;
21624;SDS011;10974;51.034;3.744;2024-03-02T08:55:20;3.80;;;1.67;;
21624;SDS011;10974;51.034;3.744;2024-03-02T08:57:46;4.27;;;1.77;;
21624;SDS011;10974;51.034;3.744;2024-03-02T09:00:15;5.32;;;1.60;;
21624;SDS011;10974;51.034;3.744;2024-03-02T09:02:44;2.50;;;1.30;;
21624;SDS011;10974;51.034;3.744;2024-03-02T09:05:10;5.23;;;1.73;;
21624;SDS011;10974;51.034;3.744;2024-03-02T09:07:36;3.07;;;1.70;;
21624;SDS011;10974;51.034;3.744;2024-03-02T09:10:04;4.33;;;1.67;;
21624;SDS011;10974;51.034;3.744;2024-03-02T09:12:30;3.57;;;1.43;;
21624;SDS011;10974;51.034;3.744;2024-03-02T09:14:56;4.67;;;1.60;;
21624;SDS011;10974;51.034;3.744;2024-03-02T09:17:22;3.17;;;1.47;;
21624;SDS011;10974;51.034;3.744;2024-03-02T09:19:49;3.17;;;1.10;;
21624;SDS011;10974;51.034;3.744;2024-03-02T09:22:17;2.30;;;1.10;;
21624;SDS011;10974;51.034;3.744;2024-03-02T09:24:44;3.57;;;1.30;;
21624;SDS011;10974;51.034;3.744;2024-03-02T09:27:10;4.47;;;1.47;;
21624;SDS011;10974;51.034;3.744;2024-03-02T09:29:36;3.70;;;1.53;;
21624;SDS011;10974;51.034;3.744;2024-03-02T09:32:02;4.10;;;1.60;;
21624;SDS011;10974;51.034;3.744;2024-03-02T09:34:29;8.73;;;1.90;;
21624;SDS011;10974;51.034;3.744;2024-03-02T09:36:55;3.33;;;1.83;;
21624;SDS011;10974;51.034;3.744;2024-03-02T09:39:21;6.03;;;2.03;;
21624;SDS011;10974;51.034;3.744;2024-03-02T09:41:47;6.03;;;2.03;;
21624;SDS011;10974;51.034;3.744;2024-03-02T09:44:13;6.67;;;1.37;;
21624;SDS011;10974;51.034;3.744;2024-03-02T09:46:40;5.57;;;1.83;;
21624;SDS011;10974;51.034;3.744;2024-03-02T09:49:09;3.40;;;1.60;;
21624;SDS011;10974;51.034;3.744;2024-03-02T09:51:35;3.37;;;1.80;;
21624;SDS011;10974;51.034;3.744;2024-03-02T09:54:02;2.83;;;1.40;;
21624;SDS011;10974;51.034;3.744;2024-03-02T09:56:28;5.00;;;1.90;;
21624;SDS011;10974;51.034;3.744;2024-03-02T09:58:54;5.47;;;1.30;;
21624;SDS011;10974;51.034;3.744;2024-03-02T10:01:20;2.20;;;1.40;;
21624;SDS011;10974;51.034;3.744;2024-03-02T10:03:47;3.50;;;1.80;;
21624;SDS011;10974;51.034;3.744;2024-03-02T10:06:25;6.03;;;1.77;;
21624;SDS011;10974;51.034;3.744;2024-03-02T10:08:51;2.30;;;1.60;;
21624;SDS011;10974;51.034;3.744;2024-03-02T10:11:30;3.20;;;1.70;;
21624;SDS011;10974;51.034;3.744;2024-03-02T10:14:04;3.87;;;1.80;;
21624;SDS011;10974;51.034;3.744;2024-03-02T10:16:33;4.60;;;1.73;;
21624;SDS011;10974;51.034;3.744;2024-03-02T10:19:13;1.73;;;1.27;;
21624;SDS011;10974;51.034;3.744;2024-03-02T10:21:41;5.10;;;1.57;;
21624;SDS011;10974;51.034;3.744;2024-03-02T10:24:07;7.80;;;2.33;;
21624;SDS011;10974;51.034;3.744;2024-03-02T10:26:33;5.07;;;2.03;;
21624;SDS011;10974;51.034;3.744;2024-03-02T10:28:59;4.53;;;1.43;;
21624;SDS011;10974;51.034;3.744;2024-03-02T10:31:27;3.80;;;1.40;;
21624;SDS011;10974;51.034;3.744;2024-03-02T10:33:54;2.27;;;1.40;;
21624;SDS011;10974;51.034;3.744;2024-03-02T10:36:20;1.10;;;1.00;;
21624;SDS011;10974;51.034;3.744;2024-03-02T10:38:47;5.37;;;1.60;;
21624;SDS011;10974;51.034;3.744;2024-03-02T10:41:16;6.43;;;1.67;;
21624;SDS011;10974;51.034;3.744;2024-03-02T10:43:43;3.90;;;1.30;;
21624;SDS011;10974;51.034;3.744;2024-03-02T10:46:09;9.83;;;2.20;;
21624;SDS011;10974;51.034;3.744;2024-03-02T10:48:36;5.50;;;1.50;;
21624;SDS011;10974;51.034;3.744;2024-03-02T10:51:02;2.03;;;1.40;;
21624;SDS011;10974;51.034;3.744;2024-03-02T10:53:28;3.47;;;1.30;;
21624;SDS011;10974;51.034;3.744;2024-03-02T10:55:57;6.43;;;2.20;;
21624;SDS011;10974;51.034;3.744;2024-03-02T10:58:31;4.60;;;1.83;;
21624;SDS011;10974;51.034;3.744;2024-03-02T11:00:59;3.70;;;1.63;;
21624;SDS011;10974;51.034;3.744;2024-03-02T11:03:28;3.93;;;1.60;;
21624;SDS011;10974;51.034;3.744;2024-03-02T11:05:55;3.53;;;1.70;;
21624;SDS011;10974;51.034;3.744;2024-03-02T11:08:21;4.23;;;1.80;;
21624;SDS011;10974;51.034;3.744;2024-03-02T11:10:50;3.53;;;1.60;;
21624;SDS011;10974;51.034;3.744;2024-03-02T11:13:21;2.33;;;1.43;;
21624;SDS011;10974;51.034;3.744;2024-03-02T11:15:49;6.90;;;2.13;;
21624;SDS011;10974;51.034;3.744;2024-03-02T11:18:17;1.87;;;1.30;;
21624;SDS011;10974;51.034;3.744;2024-03-02T11:20:44;6.70;;;1.93;;
21624;SDS011;10974;51.034;3.744;2024-03-02T11:23:11;2.73;;;1.33;;
21624;SDS011;10974;51.034;3.744;2024-03-02T11:25:37;5.80;;;1.80;;
21624;SDS011;10974;51.034;3.744;2024-03-02T11:28:05;5.30;;;1.60;;
21624;SDS011;10974;51.034;3.744;2024-03-02T11:32:57;4.20;;;1.60;;
21624;SDS011;10974;51.034;3.744;2024-03-02T11:35:24;3.63;;;1.60;;
21624;SDS011;10974;51.034;3.744;2024-03-02T11:37:51;3.20;;;1.53;;
21624;SDS011;10974;51.034;3.744;2024-03-02T11:40:23;4.53;;;1.57;;
21624;SDS011;10974;51.034;3.744;2024-03-02T11:42:50;2.50;;;1.40;;
21624;SDS011;10974;51.034;3.744;2024-03-02T11:45:16;4.33;;;1.70;;
21624;SDS011;10974;51.034;3.744;2024-03-02T11:47:53;4.17;;;1.70;;
21624;SDS011;10974;51.034;3.744;2024-03-02T11:50:36;5.40;;;2.17;;
21624;SDS011;10974;51.034;3.744;2024-03-02T11:53:08;3.37;;;1.60;;
21624;SDS011;10974;51.034;3.744;2024-03-02T11:55:35;3.03;;;1.80;;
21624;SDS011;10974;51.034;3.744;2024-03-02T11:58:05;7.27;;;2.43;;
21624;SDS011;10974;51.034;3.744;2024-03-02T12:00:31;5.33;;;1.70;;
21624;SDS011;10974;51.034;3.744;2024-03-02T12:03:00;3.10;;;1.83;;
21624;SDS011;10974;51.034;3.744;2024-03-02T12:05:27;6.60;;;1.53;;
21624;SDS011;10974;51.034;3.744;2024-03-02T12:07:57;4.50;;;2.00;;
21624;SDS011;10974;51.034;3.744;2024-03-02T12:10:23;3.20;;;1.53;;
21624;SDS011;10974;51.034;3.744;2024-03-02T12:15:45;6.63;;;1.77;;
21624;SDS011;10974;51.034;3.744;2024-03-02T12:18:11;3.70;;;1.60;;
21624;SDS011;10974;51.034;3.744;2024-03-02T12:20:37;3.83;;;1.67;;
21624;SDS011;10974;51.034;3.744;2024-03-02T12:23:04;3.60;;;1.50;;
21624;SDS011;10974;51.034;3.744;2024-03-02T12:25:31;3.67;;;1.47;;
21624;SDS011;10974;51.034;3.744;2024-03-02T12:28:01;2.10;;;1.43;;
21624;SDS011;10974;51.034;3.744;2024-03-02T12:30:29;3.83;;;1.40;;
21624;SDS011;10974;51.034;3.744;2024-03-02T12:32:55;7.40;;;1.50;;
21624;SDS011;10974;51.034;3.744;2024-03-02T12:35:21;3.13;;;1.40;;
21624;SDS011;10974;51.034;3.744;2024-03-02T12:37:48;3.23;;;1.50;;
21624;SDS011;10974;51.034;3.744;2024-03-02T12:40:15;3.43;;;1.40;;
21624;SDS011;10974;51.034;3.744;2024-03-02T12:42:43;5.80;;;1.50;;
21624;SDS011;10974;51.034;3.744;2024-03-02T12:45:10;4.73;;;2.03;;
21624;SDS011;10974;51.034;3.744;2024-03-02T12:47:36;2.93;;;1.43;;
21624;SDS011;10974;51.034;3.744;2024-03-02T12:50:03;3.30;;;1.53;;
21624;SDS011;10974;51.034;3.744;2024-03-02T12:52:29;3.33;;;1.53;;
21624;SDS011;10974;51.034;3.744;2024-03-02T12:54:58;4.07;;;1.63;;
21624;SDS011;10974;51.034;3.744;2024-03-02T12:57:25;4.53;;;1.60;;
21624;SDS011;10974;51.034;3.744;2024-03-02T13:00:01;2.90;;;1.63;;
21624;SDS011;10974;51.034;3.744;2024-03-02T13:02:33;2.77;;;1.57;;
21624;SDS011;10974;51.034;3.744;2024-03-02T13:04:59;3.83;;;1.67;;
21624;SDS011;10974;51.034;3.744;2024-03-02T13:07:25;5.00;;;2.13;;
21624;SDS011;10974;51.034;3.744;2024-03-02T13:09:52;2.90;;;1.37;;
21624;SDS011;10974;51.034;3.744;2024-03-02T13:12:20;3.00;;;1.60;;
21624;SDS011;10974;51.034;3.744;2024-03-02T13:14:52;5.20;;;1.33;;
21624;SDS011;10974;51.034;3.744;2024-03-02T13:17:18;5.97;;;1.77;;
21624;SDS011;10974;51.034;3.744;2024-03-02T13:19:57;4.57;;;1.60;;
21624;SDS011;10974;51.034;3.744;2024-03-02T13:22:24;4.60;;;1.93;;
21624;SDS011;10974;51.034;3.744;2024-03-02T13:24:52;5.17;;;1.80;;
21624;SDS011;10974;51.034;3.744;2024-03-02T13:27:21;4.30;;;2.13;;
21624;SDS011;10974;51.034;3.744;2024-03-02T13:29:47;5.23;;;2.30;;
21624;SDS011;10974;51.034;3.744;2024-03-02T13:32:14;6.80;;;2.20;;
21624;SDS011;10974;51.034;3.744;2024-03-02T13:34:41;4.67;;;1.60;;
21624;SDS011;10974;51.034;3.744;2024-03-02T13:37:07;5.63;;;2.13;;
21624;SDS011;10974;51.034;3.744;2024-03-02T13:39:33;4.27;;;1.90;;
21624;SDS011;10974;51.034;3.744;2024-03-02T13:42:05;4.13;;;1.90;;
21624;SDS011;10974;51.034;3.744;2024-03-02T13:44:33;4.28;;;2.10;;
21624;SDS011;10974;51.034;3.744;2024-03-02T13:47:02;5.67;;;2.13;;
21624;SDS011;10974;51.034;3.744;2024-03-02T13:49:28;5.33;;;2.20;;
21624;SDS011;10974;51.034;3.744;2024-03-02T13:52:05;3.90;;;1.80;;
21624;SDS011;10974;51.034;3.744;2024-03-02T13:54:42;6.57;;;2.07;;
21624;SDS011;10974;51.034;3.744;2024-03-02T13:57:08;6.00;;;2.00;;
21624;SDS011;10974;51.034;3.744;2024-03-02T13:59:35;4.83;;;1.77;;
21624;SDS011;10974;51.034;3.744;2024-03-02T14:02:01;3.13;;;1.90;;
21624;SDS011;10974;51.034;3.744;2024-03-02T14:04:29;5.30;;;2.03;;
21624;SDS011;10974;51.034;3.744;2024-03-02T14:06:55;6.50;;;2.00;;
21624;SDS011;10974;51.034;3.744;2024-03-02T14:09:21;8.20;;;2.17;;
21624;SDS011;10974;51.034;3.744;2024-03-02T14:11:49;5.03;;;1.90;;
21624;SDS011;10974;51.034;3.744;2024-03-02T14:14:16;6.03;;;2.50;;
21624;SDS011;10974;51.034;3.744;2024-03-02T14:16:42;4.60;;;2.50;;
21624;SDS011;10974;51.034;3.744;2024-03-02T14:19:10;3.53;;;1.80;;
21624;SDS011;10974;51.034;3.744;2024-03-02T14:21:37;3.80;;;2.00;;
21624;SDS011;10974;51.034;3.744;2024-03-02T14:24:03;5.00;;;2.13;;
21624;SDS011;10974;51.034;3.744;2024-03-02T14:26:29;4.60;;;2.23;;
21624;SDS011;10974;51.034;3.744;2024-03-02T14:28:56;6.20;;;2.73;;
21624;SDS011;10974;51.034;3.744;2024-03-02T14:31:22;5.60;;;2.30;;
21624;SDS011;10974;51.034;3.744;2024-03-02T14:33:48;6.07;;;2.30;;
21624;SDS011;10974;51.034;3.744;2024-03-02T14:36:14;3.10;;;2.20;;
21624;SDS011;10974;51.034;3.744;2024-03-02T14:38:40;8.87;;;2.47;;
21624;SDS011;10974;51.034;3.744;2024-03-02T14:41:06;3.20;;;1.60;;
21624;SDS011;10974;51.034;3.744;2024-03-02T14:43:32;6.70;;;2.20;;
21624;SDS011;10974;51.034;3.744;2024-03-02T14:45:58;4.73;;;2.50;;
21624;SDS011;10974;51.034;3.744;2024-03-02T14:48:24;3.10;;;1.73;;
21624;SDS011;10974;51.034;3.744;2024-03-02T14:50:50;6.00;;;2.47;;
21624;SDS011;10974;51.034;3.744;2024-03-02T14:53:17;8.63;;;2.00;;